Aviation Digital Data Service (ADDS)

Output produced by METARs form (1745 UTC 03 July 2020)
found at http://aviationweather.gov/metar/data/
 
METAR text: KAVP 031654Z 32006KT 10SM CLR 31/17 A2991 RMK AO2 SLP117 T03060167
Conditions at: KAVP (AVOCA/WILKES B. , PA, US) observed 1654 UTC 03 July 2020
Temperature: 30.6°C (87°F)
Dewpoint: 16.7°C (62°F) [RH = 43%]
Pressure (altimeter): 29.91 inches Hg (1013.0 mb)
[Sea-level pressure: 1011.7 mb]
Winds: from the NW (320 degrees) at 7 MPH (6 knots; 3.1 m/s)
Visibility: 10 or more miles (16+ km)
Ceiling: at least 12,000 feet AGL
Clouds: sky clear below 12,000 feet AGL
Weather: no significant weather observed at this time

METAR text: KAVP 031554Z 33006KT 10SM CLR 29/17 A2992 RMK AO2 SLP120 T02940167
Conditions at: KAVP (AVOCA/WILKES B. , PA, US) observed 1554 UTC 03 July 2020
Temperature: 29.4°C (85°F)
Dewpoint: 16.7°C (62°F) [RH = 46%]
Pressure (altimeter): 29.92 inches Hg (1013.3 mb)
[Sea-level pressure: 1012.0 mb]
Winds: from the NNW (330 degrees) at 7 MPH (6 knots; 3.1 m/s)
Visibility: 10 or more miles (16+ km)
Ceiling: at least 12,000 feet AGL
Clouds: sky clear below 12,000 feet AGL
Weather: no significant weather observed at this time

Forecast for: KAVP (AVOCA/WILKES B. , PA, US)
Text: KAVP 031728Z 0318/0418 32007G14KT P6SM SCT060
Forecast period: 1800 UTC 03 July 2020 to 0000 UTC 04 July 2020
Forecast type: FROM: standard forecast or significant change
Winds: from the NW (320 degrees) at 8 MPH (7 knots; 3.6 m/s)
gusting to 16 MPH (14 knots; 7.2 m/s)
Visibility: 6 or more miles 10+ km)
Ceiling: at least 12,000 feet AGL
Clouds: scattered clouds at 6000 feet AGL
Weather: no significant weather forecast for this period
Text: FM040000 00000KT P6SM BKN120
Forecast period: 0000 to 0800 UTC 04 July 2020
Forecast type: FROM: standard forecast or significant change
Winds: calm
Visibility: 6 or more miles 10+ km)
Ceiling: 12000 feet AGL
Clouds: broken clouds at 12000 feet AGL
Weather: no significant weather forecast for this period
Text: FM040800 00000KT P6SM SCT040
Forecast period: 0800 to 1000 UTC 04 July 2020
Forecast type: FROM: standard forecast or significant change
Winds: calm
Visibility: 6 or more miles 10+ km)
Ceiling: at least 12,000 feet AGL
Clouds: scattered clouds at 4000 feet AGL
Weather: no significant weather forecast for this period
Text: FM041000 00000KT 3SM BR SCT025
Forecast period: 1000 to 1400 UTC 04 July 2020
Forecast type: FROM: standard forecast or significant change
Winds: calm
Visibility: 3 miles (5 km)
Ceiling: at least 12,000 feet AGL
Clouds: scattered clouds at 2500 feet AGL
Weather: BR  (mist)
Text: FM041400 00000KT P6SM SCT045
Forecast period: 1400 to 1800 UTC 04 July 2020
Forecast type: FROM: standard forecast or significant change
Winds: calm
Visibility: 6 or more miles 10+ km)
Ceiling: at least 12,000 feet AGL
Clouds: scattered clouds at 4500 feet AGL
Weather: no significant weather forecast for this period